Aérodrome :







RETROUVEZ-NOUS SUR...

 
LOGIN :

S'inscrire | Disclaimer

   EN    FR    IT 

 









Légende :    VFR   VFR Marginal   IFR   IFR Intensif   IFR Très Intensif
Visi : 
Plafond : 
>= 8 km
>= 3000ft
5 à 8 km
1000 à 3000 ft
1500m à 5 km
500 à 1000 ft
800 à 1500m
200 à 500 ft
< 800m
< 200 ft
Symboles :   Orages  Brouillard  Fortes neiges  Fortes précipitations  Vent > 20 kt






- Altitude de l'aérodrome : 342 ft


KCON - Concord Municipal

DERNIER METAR :
  • 142051Z AUTO 00000KT 10SM FEW075 BKN100 M01/M09 A3035 RMK AO2 SLP284 T10111089 56017

METARs EXPIRÉS :
  • 141951Z AUTO 15005KT 10SM BKN090 OVC110 M01/M09 A3037 RMK AO2 SLP289 T10111094
  • 141851Z AUTO 14005KT 10SM OVC034 M02/M11 A3038 RMK AO2 SLP295 T10221106

TAF KCON
Valide du 14 à 18h jusqu'au 15 à 18h UTC


141720Z 1418/1518 18005KT P6SM BKN040 OVC100
FM142300 23002KT P6SM BKN250



MET'MAP, la Météo Aéronautique d'un coup d'oeil ! - Copyright ORBIFLY Décembre 2007 - Disclaimer

ORBIFLY MET'MAP TEAM :

Programmation & Développement : Alexandra Zaïnal
Conception & Développement : Baudouin d'Aumeries
Co-Programmation & Développement : Marc-Olivier Méhu
Soutien technique & logistique : Manuel Goepfert

Contact : metmap@orbifly.com




SOURCES & CREDITS :

   NOAA